createdAt,value
2019-03-09T00:00:48.209Z,74.88
2019-03-09T00:01:48.182Z,74.77
2019-03-09T00:02:48.205Z,74.95
2019-03-09T00:03:48.183Z,74.98
2019-03-09T00:04:48.147Z,74.88
2019-03-09T00:05:48.144Z,75.09
2019-03-09T00:06:48.129Z,75.09
2019-03-09T00:07:48.139Z,75.40
2019-03-09T00:08:48.118Z,75.50
2019-03-09T00:09:48.119Z,75.78
2019-03-09T00:10:48.086Z,75.29
2019-03-09T00:11:48.140Z,75.60
2019-03-09T00:12:48.078Z,76.60
2019-03-09T00:13:48.054Z,75.88
2019-03-09T00:14:48.048Z,75.67
2019-03-09T00:15:48.587Z,75.29
2019-03-09T00:16:48.022Z,75.46
2019-03-09T00:17:48.021Z,75.57
2019-03-09T00:18:47.997Z,75.67
2019-03-09T00:19:47.989Z,75.29
2019-03-09T00:20:48.024Z,75.60
2019-03-09T00:21:47.955Z,75.60
2019-03-09T00:22:47.973Z,75.81
2019-03-09T00:23:47.939Z,75.88
2019-03-09T00:24:47.961Z,75.19
2019-03-09T00:25:47.934Z,75.46
2019-03-09T00:26:47.900Z,75.05
2019-03-09T00:27:47.888Z,75.26
2019-03-09T00:28:47.903Z,75.19
2019-03-09T00:29:47.899Z,75.46
2019-03-09T00:30:47.896Z,75.26
2019-03-09T00:31:47.865Z,75.05
2019-03-09T00:32:47.834Z,75.26
2019-03-09T00:33:47.836Z,75.36
2019-03-09T00:34:47.838Z,75.78
2019-03-09T00:35:47.806Z,75.78
2019-03-09T00:36:47.809Z,75.05
2019-03-09T00:37:47.790Z,75.67
2019-03-09T00:38:47.795Z,75.05
2019-03-09T00:39:47.757Z,75.57
2019-03-09T00:40:47.749Z,75.22
2019-03-09T00:41:47.742Z,74.84
2019-03-09T00:42:47.735Z,75.53
2019-03-09T00:43:47.751Z,75.84
2019-03-09T00:44:47.712Z,76.15
2019-03-09T00:45:47.698Z,75.22
2019-03-09T00:46:47.691Z,75.32
2019-03-09T00:47:47.670Z,75.12
2019-03-09T00:48:47.688Z,75.43
2019-03-09T00:49:47.677Z,75.22
2019-03-09T00:50:47.643Z,74.91
2019-03-09T00:51:47.633Z,75.12
2019-03-09T00:52:47.611Z,75.22
2019-03-09T00:53:47.641Z,74.95
2019-03-09T00:54:47.587Z,75.15
2019-03-09T00:55:47.601Z,75.84
2019-03-09T00:56:47.574Z,75.53
2019-03-09T00:57:47.563Z,75.63
2019-03-09T00:58:47.566Z,75.57
2019-03-09T00:59:47.551Z,75.53
2019-03-09T01:00:47.520Z,75.63
2019-03-09T01:01:47.522Z,76.15
2019-03-09T01:02:47.500Z,75.74
2019-03-09T01:03:47.502Z,75.63
2019-03-09T01:04:47.487Z,75.63
2019-03-09T01:05:47.473Z,75.53
2019-03-09T01:06:47.494Z,75.67
2019-03-09T01:07:47.442Z,75.32
2019-03-09T01:08:47.617Z,75.01
2019-03-09T01:09:47.423Z,75.74
2019-03-09T01:10:47.419Z,75.01
2019-03-09T01:11:47.423Z,75.22
2019-03-09T01:12:47.405Z,75.22
2019-03-09T01:13:47.377Z,75.74
2019-03-09T01:14:47.613Z,75.43
2019-03-09T01:15:47.377Z,75.70
2019-03-09T01:16:47.351Z,75.29
2019-03-09T01:17:47.328Z,75.70
2019-03-09T01:18:47.331Z,75.39
2019-03-09T01:19:47.333Z,75.49
2019-03-09T01:20:47.318Z,75.39
2019-03-09T01:21:47.295Z,74.88
2019-03-09T01:22:47.295Z,74.98
2019-03-09T01:23:47.262Z,75.60
2019-03-09T01:24:47.281Z,76.12
2019-03-09T01:25:47.250Z,75.49
2019-03-09T01:26:47.230Z,75.36
2019-03-09T01:27:47.227Z,75.39
2019-03-09T01:28:47.263Z,75.26
2019-03-09T01:29:47.281Z,75.15
2019-03-09T01:30:47.187Z,75.67
2019-03-09T01:31:47.187Z,75.98
2019-03-09T01:32:47.168Z,75.05
2019-03-09T01:33:47.169Z,75.15
2019-03-09T01:34:47.176Z,74.74
2019-03-09T01:35:47.140Z,75.57
2019-03-09T01:36:47.127Z,75.57
2019-03-09T01:37:47.123Z,76.39
2019-03-09T01:38:47.096Z,75.57
2019-03-09T01:39:47.111Z,75.67
2019-03-09T01:40:47.077Z,76.12
2019-03-09T01:41:47.061Z,76.39
2019-03-09T01:42:47.062Z,77.32
2019-03-09T01:43:47.041Z,76.81
2019-03-09T01:44:47.048Z,77.22
2019-03-09T01:45:47.042Z,76.60
2019-03-09T01:46:47.019Z,76.90
2019-03-09T01:47:46.998Z,77.22
2019-03-09T01:48:46.997Z,77.94
2019-03-09T01:49:47.001Z,77.11
2019-03-09T01:50:46.976Z,77.11
2019-03-09T01:51:46.949Z,78.28
2019-03-09T01:52:46.939Z,77.87
2019-03-09T01:53:46.936Z,77.67
2019-03-09T01:54:46.940Z,78.18
2019-03-09T01:55:46.937Z,77.77
2019-03-09T01:56:46.905Z,78.28
2019-03-09T01:57:46.903Z,78.28
2019-03-09T01:58:46.872Z,78.80
2019-03-09T01:59:46.877Z,78.18
2019-03-09T02:00:46.861Z,77.56
2019-03-09T02:01:46.856Z,78.91
2019-03-09T02:02:46.822Z,78.28
2019-03-09T02:03:46.822Z,77.46
2019-03-09T02:04:47.150Z,78.18
2019-03-09T02:05:46.800Z,78.18
2019-03-09T02:06:46.780Z,78.08
2019-03-09T02:07:46.784Z,78.49
2019-03-09T02:08:46.759Z,79.01
2019-03-09T02:09:46.742Z,78.18
2019-03-09T02:10:46.745Z,78.18
2019-03-09T02:12:47.886Z,78.80
2019-03-09T02:13:46.729Z,78.08
2019-03-09T02:14:46.691Z,77.87
2019-03-09T02:15:46.697Z,77.46
2019-03-09T02:16:46.679Z,78.49
2019-03-09T02:17:46.653Z,78.18
2019-03-09T02:18:46.658Z,77.98
2019-03-09T02:19:46.658Z,77.56
2019-03-09T02:20:46.641Z,77.56
2019-03-09T02:21:46.613Z,78.39
2019-03-09T02:22:46.621Z,78.14
2019-03-09T02:23:46.591Z,78.25
2019-03-09T02:24:46.591Z,78.25
2019-03-09T02:25:46.600Z,77.42
2019-03-09T02:26:46.556Z,77.63
2019-03-09T02:27:46.551Z,77.11
2019-03-09T02:28:46.565Z,78.25
2019-03-09T02:29:46.527Z,78.14
2019-03-09T02:30:46.541Z,78.05
2019-03-09T02:31:46.505Z,78.11
2019-03-09T02:32:46.546Z,77.70
2019-03-09T02:33:46.485Z,77.42
2019-03-09T02:34:46.491Z,78.14
2019-03-09T02:35:46.526Z,77.80
2019-03-09T02:36:46.446Z,78.11
2019-03-09T02:37:46.440Z,77.70
2019-03-09T02:38:46.423Z,77.32
2019-03-09T02:39:46.430Z,77.39
2019-03-09T02:40:46.436Z,78.11
2019-03-09T02:41:46.411Z,77.53
2019-03-09T02:42:46.372Z,78.35
2019-03-09T02:43:46.369Z,78.01
2019-03-09T02:44:46.356Z,78.21
2019-03-09T02:45:46.368Z,77.53
2019-03-09T02:46:46.387Z,77.94
2019-03-09T02:47:46.334Z,78.11
2019-03-09T02:48:46.307Z,78.87
2019-03-09T02:49:46.297Z,78.11
2019-03-09T02:50:46.327Z,78.42
2019-03-09T02:51:46.320Z,78.11
2019-03-09T02:52:46.269Z,78.73
2019-03-09T02:53:46.251Z,78.42
2019-03-09T02:54:46.248Z,78.63
2019-03-09T02:55:46.251Z,78.14
2019-03-09T02:56:46.233Z,78.11
2019-03-09T02:57:46.213Z,78.01
2019-03-09T02:58:46.204Z,78.73
2019-03-09T02:59:46.229Z,78.21
2019-03-09T03:00:46.225Z,78.11
2019-03-09T03:01:46.167Z,78.01
2019-03-09T03:02:46.183Z,78.63
2019-03-09T03:03:46.146Z,78.63
2019-03-09T03:04:46.154Z,78.83
2019-03-09T03:05:46.118Z,78.42
2019-03-09T03:06:46.128Z,78.73
2019-03-09T03:07:46.101Z,78.52
2019-03-09T03:08:46.086Z,78.11
2019-03-09T03:09:46.080Z,78.52
2019-03-09T03:10:46.058Z,78.52
2019-03-09T03:11:46.096Z,78.94
2019-03-09T03:12:46.043Z,78.83
2019-03-09T03:13:46.040Z,78.52
2019-03-09T03:14:46.033Z,78.52
2019-03-09T03:15:46.020Z,78.69
2019-03-09T03:16:46.020Z,78.49
2019-03-09T03:17:46.021Z,78.11
2019-03-09T03:18:45.974Z,78.01
2019-03-09T03:19:45.989Z,78.73
2019-03-09T03:20:45.976Z,78.80
2019-03-09T03:21:45.953Z,78.49
2019-03-09T03:22:45.965Z,78.59
2019-03-09T03:23:45.926Z,78.69
2019-03-09T03:24:45.916Z,78.18
2019-03-09T03:25:45.898Z,78.69
2019-03-09T03:26:45.901Z,77.97
2019-03-09T03:27:45.900Z,78.49
2019-03-09T03:28:45.857Z,78.80
2019-03-09T03:29:45.848Z,78.08
2019-03-09T03:30:45.882Z,78.18
2019-03-09T03:31:45.847Z,78.08
2019-03-09T03:32:45.904Z,78.69
2019-03-09T03:33:45.918Z,78.08
2019-03-09T03:34:45.798Z,78.08
2019-03-09T03:35:45.783Z,78.18
2019-03-09T03:36:45.793Z,78.28
2019-03-09T03:37:45.793Z,77.97
2019-03-09T03:38:45.761Z,78.18
2019-03-09T03:39:45.749Z,78.08
2019-03-09T03:40:45.729Z,78.18
2019-03-09T03:41:45.721Z,78.28
2019-03-09T03:42:45.733Z,78.08
2019-03-09T03:43:45.708Z,78.08
2019-03-09T03:44:45.682Z,78.80
2019-03-09T03:45:45.672Z,78.08
2019-03-09T03:46:45.657Z,78.08
2019-03-09T03:47:46.144Z,78.18
2019-03-09T03:48:45.637Z,78.08
2019-03-09T03:49:45.637Z,78.08
2019-03-09T03:50:45.619Z,77.87
2019-03-09T03:51:45.613Z,77.97
2019-03-09T03:52:45.617Z,78.08
2019-03-09T03:53:45.619Z,78.38
2019-03-09T03:54:45.579Z,78.08
2019-03-09T03:55:45.578Z,78.04
2019-03-09T03:56:47.427Z,78.04
2019-03-09T03:57:45.569Z,78.08
2019-03-09T03:58:45.568Z,78.08
2019-03-09T03:59:45.512Z,78.24
2019-03-09T04:00:45.516Z,78.66
2019-03-09T04:01:45.489Z,78.66
2019-03-09T04:02:45.480Z,78.59
2019-03-09T04:03:45.483Z,78.55
2019-03-09T04:04:45.534Z,78.66
2019-03-09T04:05:45.454Z,78.45
2019-03-09T04:06:45.461Z,77.94
2019-03-09T04:07:45.457Z,77.94
2019-03-09T04:08:45.441Z,78.86
2019-03-09T04:09:45.403Z,78.55
2019-03-09T04:10:45.408Z,78.66
2019-03-09T04:11:45.387Z,78.86
2019-03-09T04:12:45.381Z,79.27
2019-03-09T04:13:45.395Z,78.76
2019-03-09T04:14:45.345Z,78.66
2019-03-09T04:15:45.339Z,78.97
2019-03-09T04:16:45.320Z,78.66
2019-03-09T04:17:45.321Z,78.45
2019-03-09T04:18:45.352Z,78.55
2019-03-09T04:19:45.290Z,78.45
2019-03-09T04:20:45.274Z,78.55
2019-03-09T04:21:45.279Z,79.58
2019-03-09T04:22:45.257Z,79.00
2019-03-09T04:23:45.269Z,79.90
2019-03-09T04:24:45.232Z,80.20
2019-03-09T04:25:45.226Z,80.14
2019-03-09T04:26:45.214Z,79.11
2019-03-09T04:27:45.224Z,79.07
2019-03-09T04:28:45.365Z,79.31
2019-03-09T04:29:45.194Z,78.66
2019-03-09T04:30:45.161Z,78.66
2019-03-09T04:31:45.155Z,78.55
2019-03-09T04:32:45.144Z,78.76
2019-03-09T04:33:45.158Z,78.34
2019-03-09T04:34:45.139Z,78.14
2019-03-09T04:35:45.108Z,78.55
2019-03-09T04:36:45.098Z,78.34
2019-03-09T04:37:45.089Z,78.04
2019-03-09T04:38:45.094Z,78.24
2019-03-09T04:39:45.066Z,77.94
2019-03-09T04:40:45.061Z,78.24
2019-03-09T04:41:45.048Z,77.31
2019-03-09T04:42:45.046Z,77.42
2019-03-09T04:43:45.054Z,76.39
2019-03-09T04:44:45.030Z,75.98
2019-03-09T04:45:45.008Z,76.70
2019-03-09T04:46:44.997Z,76.29
2019-03-09T04:47:44.975Z,76.18
2019-03-09T04:48:44.960Z,75.77
2019-03-09T04:49:44.981Z,76.15
2019-03-09T04:50:44.950Z,75.84
2019-03-09T04:51:44.946Z,76.49
2019-03-09T04:52:44.917Z,76.29
2019-03-09T04:53:44.902Z,76.35
2019-03-09T04:54:44.917Z,76.25
2019-03-09T04:55:44.891Z,75.53
2019-03-09T04:56:44.876Z,75.73
2019-03-09T04:57:44.874Z,74.91
2019-03-09T04:58:44.858Z,75.12
2019-03-09T04:59:44.855Z,74.80
2019-03-09T05:00:44.838Z,75.63
2019-03-09T05:01:44.821Z,75.43
2019-03-09T05:02:44.808Z,75.63
2019-03-09T05:03:44.808Z,75.53
2019-03-09T05:04:44.835Z,75.01
2019-03-09T05:05:44.774Z,75.53
2019-03-09T05:06:44.764Z,75.43
2019-03-09T05:07:44.762Z,75.84
2019-03-09T05:08:44.756Z,75.84
2019-03-09T05:09:44.759Z,76.04
2019-03-09T05:10:44.718Z,76.56
2019-03-09T05:11:44.710Z,76.97
2019-03-09T05:12:44.712Z,77.08
2019-03-09T05:13:44.686Z,76.66
2019-03-09T05:14:44.684Z,78.52
2019-03-09T05:15:44.654Z,79.27
2019-03-09T05:16:44.657Z,80.51
2019-03-09T05:17:44.635Z,78.76
2019-03-09T05:18:44.632Z,79.27
2019-03-09T05:19:44.636Z,79.93
2019-03-09T05:20:44.623Z,78.76
2019-03-09T05:21:44.593Z,80.14
2019-03-09T05:22:44.578Z,79.90
2019-03-09T05:23:44.573Z,79.58
2019-03-09T05:24:44.590Z,80.04
2019-03-09T05:25:44.554Z,80.76
2019-03-09T05:26:45.114Z,81.17
2019-03-09T05:27:44.522Z,80.04
2019-03-09T05:28:44.517Z,80.10
2019-03-09T05:29:44.535Z,79.72
2019-03-09T05:30:44.494Z,78.86
2019-03-09T05:31:44.495Z,79.07
2019-03-09T05:32:44.471Z,80.41
2019-03-09T05:33:44.461Z,79.79
2019-03-09T05:34:44.492Z,79.93
2019-03-09T05:35:44.437Z,81.13
2019-03-09T05:36:44.425Z,80.44
2019-03-09T05:37:44.431Z,79.83
2019-03-09T05:38:44.398Z,80.14
2019-03-09T05:39:44.387Z,80.65
2019-03-09T05:40:44.408Z,80.24
2019-03-09T05:41:44.376Z,80.24
2019-03-09T05:42:44.362Z,80.65
2019-03-09T05:43:44.344Z,80.55
2019-03-09T05:44:44.332Z,80.96
2019-03-09T05:45:44.373Z,81.58
2019-03-09T05:46:44.322Z,81.37
2019-03-09T05:47:44.319Z,80.76
2019-03-09T05:48:44.302Z,80.96
2019-03-09T05:49:44.276Z,80.96
2019-03-09T05:50:44.281Z,81.27
2019-03-09T05:51:44.251Z,80.86
2019-03-09T05:52:44.246Z,81.17
2019-03-09T05:53:44.252Z,81.27
2019-03-09T05:54:44.222Z,80.55
2019-03-09T05:55:44.244Z,80.55
2019-03-09T05:56:44.197Z,80.76
2019-03-09T05:57:44.197Z,81.07
2019-03-09T05:58:44.180Z,81.89
2019-03-09T05:59:44.172Z,81.79
2019-03-09T06:00:44.179Z,82.61
2019-03-09T06:01:44.144Z,83.54
2019-03-09T06:02:44.131Z,84.16
2019-03-09T06:03:44.140Z,84.92
2019-03-09T06:04:44.120Z,85.33
2019-03-09T06:05:44.128Z,87.23
2019-03-09T06:06:44.094Z,87.74
2019-03-09T06:07:44.081Z,88.57
2019-03-09T06:08:44.061Z,88.89
2019-03-09T06:09:44.051Z,91.05
2019-03-09T06:10:44.069Z,91.20
2019-03-09T06:11:44.027Z,91.30
2019-03-09T06:12:44.030Z,92.02
2019-03-09T06:13:44.003Z,92.85
2019-03-09T06:14:44.002Z,93.68
2019-03-09T06:15:44.007Z,93.20
2019-03-09T06:16:44.001Z,93.41
2019-03-09T06:17:43.966Z,93.62
2019-03-09T06:18:43.952Z,94.13
2019-03-09T06:19:43.939Z,94.65
2019-03-09T06:20:43.944Z,95.68
2019-03-09T06:21:43.948Z,95.17
2019-03-09T06:22:43.923Z,94.85
2019-03-09T06:23:43.903Z,94.48
2019-03-09T06:24:43.889Z,94.44
2019-03-09T06:25:43.876Z,94.54
2019-03-09T06:26:43.888Z,94.38
2019-03-09T06:27:43.862Z,95.06
2019-03-09T06:28:43.859Z,95.83
2019-03-09T06:29:43.827Z,95.31
2019-03-09T06:30:43.840Z,96.34
2019-03-09T06:31:43.840Z,95.73
2019-03-09T06:32:43.801Z,95.52
2019-03-09T06:33:43.808Z,95.83
2019-03-09T06:34:43.777Z,96.86
2019-03-09T06:35:43.760Z,97.07
2019-03-09T06:36:43.776Z,96.76
2019-03-09T06:37:43.754Z,97.07
2019-03-09T06:38:43.743Z,97.59
2019-03-09T06:39:43.729Z,96.76
2019-03-09T06:40:43.706Z,96.86
2019-03-09T06:41:43.742Z,96.97
2019-03-09T06:42:43.684Z,96.97
2019-03-09T06:43:43.687Z,96.55
2019-03-09T06:44:43.677Z,96.86
2019-03-09T06:45:43.662Z,96.97
2019-03-09T06:46:43.676Z,98.10
2019-03-09T06:47:43.636Z,97.38
2019-03-09T06:48:43.626Z,98.10
2019-03-09T06:49:43.610Z,98.00
2019-03-09T06:50:43.623Z,98.00
2019-03-09T06:51:43.612Z,97.07
2019-03-09T06:52:43.570Z,97.07
2019-03-09T06:53:43.612Z,97.28
2019-03-09T06:54:43.558Z,98.21
2019-03-09T06:55:43.559Z,97.38
2019-03-09T06:56:43.553Z,96.76
2019-03-09T06:57:43.515Z,96.91
2019-03-09T06:58:43.513Z,96.97
2019-03-09T06:59:43.497Z,96.34
2019-03-09T07:00:43.514Z,96.55
2019-03-09T07:01:43.494Z,96.76
2019-03-09T07:02:43.476Z,97.07
2019-03-09T07:03:43.449Z,97.17
2019-03-09T07:04:44.109Z,97.07
2019-03-09T07:05:43.436Z,96.34
2019-03-09T07:06:43.447Z,96.45
2019-03-09T07:07:43.427Z,96.24
2019-03-09T07:08:43.391Z,96.86
2019-03-09T07:09:43.387Z,96.66
2019-03-09T07:10:43.367Z,97.17
2019-03-09T07:11:43.368Z,96.14
2019-03-09T07:12:43.373Z,96.55
2019-03-09T07:13:52.404Z,96.86
2019-03-09T07:14:44.330Z,97.17
2019-03-09T07:15:43.323Z,97.07
2019-03-09T07:16:43.295Z,97.07
2019-03-09T07:17:43.322Z,96.51
2019-03-09T07:18:43.301Z,96.30
2019-03-09T07:19:43.281Z,96.41
2019-03-09T07:20:43.259Z,96.72
2019-03-09T07:21:43.251Z,95.68
2019-03-09T07:22:43.688Z,95.37
2019-03-09T07:23:43.233Z,96.30
2019-03-09T07:24:43.224Z,96.92
2019-03-09T07:25:43.198Z,96.51
2019-03-09T07:26:43.197Z,97.02
2019-03-09T07:27:43.204Z,96.92
2019-03-09T07:28:43.186Z,95.78
2019-03-09T07:29:43.165Z,95.68
2019-03-09T07:30:43.159Z,95.22
2019-03-09T07:31:44.101Z,95.02
2019-03-09T07:32:43.147Z,94.65
2019-03-09T07:33:43.112Z,94.65
2019-03-09T07:34:43.118Z,94.34
2019-03-09T07:35:43.107Z,94.44
2019-03-09T07:36:43.080Z,94.23
2019-03-09T07:37:43.116Z,94.50
2019-03-09T07:38:43.067Z,94.09
2019-03-09T07:39:43.055Z,94.19
2019-03-09T07:40:43.042Z,94.09
2019-03-09T07:41:43.027Z,93.47
2019-03-09T07:42:43.010Z,94.40
2019-03-09T07:43:43.017Z,94.40
2019-03-09T07:44:42.991Z,94.29
2019-03-09T07:45:42.976Z,94.60
2019-03-09T07:46:42.969Z,95.02
2019-03-09T07:47:42.964Z,94.40
2019-03-09T07:48:42.972Z,94.77
2019-03-09T07:49:42.935Z,94.67
2019-03-09T07:50:42.917Z,94.56
2019-03-09T07:51:42.908Z,93.53
2019-03-09T07:52:42.919Z,92.50
2019-03-09T07:53:42.972Z,91.77
2019-03-09T07:54:42.875Z,91.94
2019-03-09T07:55:42.858Z,92.14
2019-03-09T07:56:42.862Z,91.32
2019-03-09T07:57:42.853Z,91.56
2019-03-09T07:58:42.863Z,91.83
2019-03-09T07:59:42.815Z,92.25
2019-03-09T08:00:42.808Z,91.42
2019-03-09T08:01:42.795Z,91.63
2019-03-09T08:02:42.796Z,91.52
2019-03-09T08:03:42.807Z,91.73
2019-03-09T08:04:42.776Z,90.70
2019-03-09T08:05:42.873Z,90.97
2019-03-09T08:06:42.738Z,90.76
2019-03-09T08:07:42.733Z,90.97
2019-03-09T08:08:43.628Z,89.22
2019-03-09T08:09:44.172Z,90.97
2019-03-09T08:10:42.784Z,91.07
2019-03-09T08:11:42.688Z,90.76
2019-03-09T08:12:42.778Z,91.07
2019-03-09T08:13:43.188Z,91.38
2019-03-09T08:14:42.658Z,89.83
2019-03-09T08:15:42.643Z,89.01
2019-03-09T08:16:42.646Z,89.73
2019-03-09T08:17:42.626Z,89.94
2019-03-09T08:18:42.640Z,90.14
2019-03-09T08:19:42.615Z,89.28
2019-03-09T08:20:42.604Z,88.86
2019-03-09T08:21:42.587Z,88.96
2019-03-09T08:22:42.573Z,88.86
2019-03-09T08:23:42.609Z,88.86
2019-03-09T08:24:42.534Z,88.86
2019-03-09T08:25:42.537Z,87.07
2019-03-09T08:26:42.528Z,87.79
2019-03-09T08:27:42.523Z,87.38
2019-03-09T08:28:42.491Z,86.87
2019-03-09T08:29:42.504Z,87.44
2019-03-09T08:30:42.479Z,88.37
2019-03-09T08:31:42.475Z,87.03
2019-03-09T08:32:42.475Z,87.65
2019-03-09T08:33:42.437Z,86.72
2019-03-09T08:34:42.548Z,85.59
2019-03-09T08:35:42.434Z,86.82
2019-03-09T08:36:42.417Z,87.34
2019-03-09T08:37:42.405Z,87.44
2019-03-09T08:38:42.421Z,87.85
2019-03-09T08:39:42.405Z,87.07
2019-03-09T08:40:42.861Z,88.20
2019-03-09T08:41:42.356Z,88.92
2019-03-09T08:42:42.345Z,89.65
2019-03-09T08:43:42.350Z,89.03
2019-03-09T08:44:42.332Z,88.92
2019-03-09T08:45:42.357Z,89.13
2019-03-09T08:46:42.306Z,89.13
2019-03-09T08:47:51.602Z,89.85
2019-03-09T08:48:43.286Z,89.95
2019-03-09T08:49:42.266Z,90.67
2019-03-09T08:50:42.308Z,89.75
2019-03-09T08:51:42.236Z,90.67
2019-03-09T08:52:42.238Z,91.19
2019-03-09T08:53:42.235Z,91.30
2019-03-09T08:54:42.209Z,91.71
2019-03-09T08:55:42.233Z,91.71
2019-03-09T08:56:42.180Z,92.12
2019-03-09T08:57:42.165Z,92.12
2019-03-09T08:58:42.157Z,92.94
2019-03-09T08:59:42.194Z,92.53
2019-03-09T09:00:42.155Z,91.71
2019-03-09T09:01:42.166Z,91.64
2019-03-09T09:02:42.111Z,92.22
2019-03-09T09:03:42.109Z,92.27
2019-03-09T09:04:42.095Z,92.57
2019-03-09T09:05:42.105Z,92.88
2019-03-09T09:06:42.078Z,92.47
2019-03-09T09:07:42.052Z,92.88
2019-03-09T09:08:42.041Z,93.71
2019-03-09T09:09:42.030Z,93.60
2019-03-09T09:10:42.050Z,93.30
2019-03-09T09:11:42.146Z,91.71
2019-03-09T09:12:42.017Z,91.30
2019-03-09T09:13:42.010Z,91.71
2019-03-09T09:14:41.974Z,91.25
2019-03-09T09:15:42.006Z,91.36
2019-03-09T09:16:41.961Z,90.80
2019-03-09T09:17:41.944Z,89.87
2019-03-09T09:18:41.974Z,89.31
2019-03-09T09:19:41.976Z,87.26
2019-03-09T09:20:41.928Z,86.64
2019-03-09T09:21:41.904Z,84.89
2019-03-09T09:22:41.887Z,83.86
2019-03-09T09:23:41.908Z,84.07
2019-03-09T09:24:41.910Z,83.76
2019-03-09T09:25:41.849Z,83.11
2019-03-09T09:26:41.864Z,83.00
2019-03-09T09:27:41.837Z,82.96
2019-03-09T09:28:41.827Z,81.83
2019-03-09T09:29:41.857Z,80.87
2019-03-09T09:30:41.804Z,79.53
2019-03-09T09:31:41.858Z,79.33
2019-03-09T09:32:41.780Z,79.19
2019-03-09T09:33:41.768Z,78.47
2019-03-09T09:34:41.766Z,78.53
2019-03-09T09:35:41.777Z,77.20
2019-03-09T09:36:41.732Z,77.71
2019-03-09T09:37:41.726Z,76.48
2019-03-09T09:38:41.712Z,75.83
2019-03-09T09:39:41.698Z,74.57
2019-03-09T09:40:41.710Z,73.98
2019-03-09T09:41:41.669Z,72.96
2019-03-09T09:42:41.717Z,72.72
2019-03-09T09:43:41.646Z,70.46
2019-03-09T09:44:41.648Z,69.33
2019-03-09T09:45:41.653Z,69.33
2019-03-09T09:46:41.632Z,71.04
2019-03-09T09:47:42.604Z,70.32
2019-03-09T09:48:41.611Z,70.22
2019-03-09T09:49:41.583Z,69.30
2019-03-09T09:50:41.603Z,68.68
2019-03-09T09:51:41.580Z,68.82
2019-03-09T09:52:41.564Z,68.59
2019-03-09T09:53:41.546Z,67.66
2019-03-09T09:54:41.520Z,66.33
2019-03-09T09:55:41.536Z,67.52
2019-03-09T09:56:41.519Z,66.50
2019-03-09T09:57:41.516Z,66.67
2019-03-09T09:58:41.482Z,66.67
2019-03-09T09:59:41.477Z,63.95
2019-03-09T10:00:41.457Z,63.00
2019-03-09T10:01:41.477Z,62.39
2019-03-09T10:02:41.464Z,61.98
2019-03-09T10:03:41.449Z,60.19
2019-03-09T10:04:41.412Z,60.05
2019-03-09T10:05:41.416Z,60.16
2019-03-09T10:06:41.392Z,60.05
2019-03-09T10:07:41.412Z,59.88
2019-03-09T10:08:41.386Z,60.36
2019-03-09T10:09:41.353Z,57.48
2019-03-09T10:10:41.363Z,57.57
2019-03-09T10:11:41.334Z,58.70
2019-03-09T10:12:41.344Z,57.07
2019-03-09T10:13:41.320Z,58.70
2019-03-09T10:14:41.310Z,56.32
2019-03-09T10:15:41.310Z,57.55
2019-03-09T10:16:41.284Z,55.97
2019-03-09T10:17:41.304Z,55.13
2019-03-09T10:18:42.196Z,53.47
2019-03-09T10:19:41.287Z,51.86
2019-03-09T10:20:41.275Z,50.92
2019-03-09T10:21:41.220Z,50.57
2019-03-09T10:22:41.232Z,49.86
2019-03-09T10:23:41.208Z,49.20
2019-03-09T10:24:41.221Z,47.06
2019-03-09T10:25:41.216Z,48.47
2019-03-09T10:26:41.211Z,47.14
2019-03-09T10:27:41.206Z,46.74
2019-03-09T10:28:41.160Z,47.90
2019-03-09T10:29:41.171Z,48.68
2019-03-09T10:30:41.172Z,50.71
2019-03-09T10:31:41.154Z,51.35
2019-03-09T10:32:41.172Z,52.29
2019-03-09T10:33:41.093Z,53.64
2019-03-09T10:34:41.074Z,54.08
2019-03-09T10:35:41.064Z,53.80
2019-03-09T10:36:41.070Z,52.67
2019-03-09T10:37:41.074Z,52.59
2019-03-09T10:38:41.027Z,52.29
2019-03-09T10:39:41.019Z,52.47
2019-03-09T10:40:41.016Z,52.47
2019-03-09T10:41:41.033Z,52.67
2019-03-09T10:42:41.021Z,52.29
2019-03-09T10:43:40.998Z,52.29
2019-03-09T10:44:40.962Z,51.37
2019-03-09T10:45:40.955Z,52.57
2019-03-09T10:46:40.983Z,52.26
2019-03-09T10:47:40.930Z,51.14
2019-03-09T10:48:40.951Z,52.26
2019-03-09T10:49:40.900Z,51.21
2019-03-09T10:50:40.907Z,52.57
2019-03-09T10:51:40.879Z,52.57
2019-03-09T10:52:40.870Z,53.90
2019-03-09T10:53:40.877Z,53.28
2019-03-09T10:54:40.859Z,53.72
2019-03-09T10:55:42.510Z,53.39
2019-03-09T10:56:40.855Z,54.21
2019-03-09T10:57:40.833Z,54.00
2019-03-09T10:58:40.803Z,53.47
2019-03-09T10:59:40.810Z,53.57
2019-03-09T11:00:40.800Z,54.28
2019-03-09T11:01:40.771Z,53.98
2019-03-09T11:02:40.753Z,54.49
2019-03-09T11:03:40.748Z,54.18
2019-03-09T11:04:40.777Z,53.57
2019-03-09T11:05:40.738Z,55.23
2019-03-09T11:06:40.706Z,54.10
2019-03-09T11:07:40.708Z,53.92
2019-03-09T11:08:40.691Z,54.44
2019-03-09T11:09:40.709Z,54.85
2019-03-09T11:10:40.696Z,55.28
2019-03-09T11:11:40.688Z,55.15
2019-03-09T11:12:40.646Z,55.66
2019-03-09T11:13:40.633Z,54.61
2019-03-09T11:14:40.643Z,54.64
2019-03-09T11:15:40.642Z,55.15
2019-03-09T11:16:40.658Z,54.85
2019-03-09T11:17:40.589Z,55.46
2019-03-09T11:18:40.573Z,55.46
2019-03-09T11:19:40.562Z,56.07
2019-03-09T11:20:40.586Z,56.10
2019-03-09T11:21:40.541Z,56.20
2019-03-09T11:22:40.546Z,56.41
2019-03-09T11:23:40.564Z,56.71
2019-03-09T11:24:40.502Z,57.94
2019-03-09T11:25:40.528Z,57.84
2019-03-09T11:26:40.492Z,57.46
2019-03-09T11:27:40.709Z,58.28
2019-03-09T11:28:40.484Z,57.87
2019-03-09T11:29:40.452Z,57.64
2019-03-09T11:30:40.459Z,58.04
2019-03-09T11:31:40.442Z,57.61
2019-03-09T11:32:40.466Z,56.25
2019-03-09T11:33:40.430Z,56.56
2019-03-09T11:34:40.398Z,56.76
2019-03-09T11:35:40.406Z,56.74
2019-03-09T11:36:40.384Z,55.99
2019-03-09T11:37:40.384Z,50.78
2019-03-09T11:38:40.361Z,50.03
2019-03-09T11:39:40.348Z,51.30
2019-03-09T11:40:40.328Z,52.98
2019-03-09T11:41:40.318Z,54.54
2019-03-09T11:42:41.250Z,53.75
2019-03-09T11:43:40.300Z,54.16
2019-03-09T11:44:40.307Z,53.72
2019-03-09T11:45:40.288Z,53.85
2019-03-09T11:46:40.264Z,54.23
2019-03-09T11:47:40.266Z,53.08
2019-03-09T11:48:40.263Z,51.17
2019-03-09T11:49:40.234Z,51.22
2019-03-09T11:50:40.246Z,52.67
2019-03-09T11:51:40.349Z,51.07
2019-03-09T11:52:41.174Z,49.22
2019-03-09T11:53:40.174Z,44.56
2019-03-09T11:54:40.166Z,44.65
2019-03-09T11:55:40.175Z,43.49
2019-03-09T11:56:40.239Z,44.26
2019-03-09T11:57:40.133Z,47.29
2019-03-09T11:58:40.140Z,48.86
2019-03-09T11:59:40.110Z,49.62
2019-03-09T12:00:40.111Z,50.36
2019-03-09T12:01:40.110Z,50.99
2019-03-09T12:02:40.119Z,50.61
2019-03-09T12:03:40.069Z,51.22
2019-03-09T12:04:46.763Z,51.98
2019-03-09T12:05:41.072Z,51.96
2019-03-09T12:06:40.047Z,51.48
2019-03-09T12:07:40.049Z,46.94
2019-03-09T12:08:40.012Z,45.98
2019-03-09T12:09:40.003Z,43.89
2019-03-09T12:10:39.991Z,45.15
2019-03-09T12:11:39.998Z,44.10
2019-03-09T12:12:39.980Z,43.23
2019-03-09T12:13:39.949Z,41.71
2019-03-09T12:14:39.946Z,41.16
2019-03-09T12:15:39.934Z,41.89
2019-03-09T12:16:39.918Z,41.42
2019-03-09T12:17:39.934Z,43.77
2019-03-09T12:18:39.903Z,41.63
2019-03-09T12:19:39.880Z,41.32
2019-03-09T12:20:39.869Z,40.69
2019-03-09T12:21:39.867Z,39.83
2019-03-09T12:22:39.864Z,41.30
2019-03-09T12:23:39.845Z,39.97
2019-03-09T12:24:40.681Z,41.63
2019-03-09T12:25:39.814Z,42.37
2019-03-09T12:26:39.809Z,43.37
2019-03-09T12:27:39.808Z,42.41
2019-03-09T12:28:39.806Z,41.22
2019-03-09T12:29:39.789Z,40.59
2019-03-09T12:30:39.760Z,41.56
2019-03-09T12:31:39.748Z,42.82
2019-03-09T12:32:39.734Z,44.26
2019-03-09T12:33:39.751Z,41.66
2019-03-09T12:34:39.729Z,42.27
2019-03-09T12:35:39.729Z,42.31
2019-03-09T12:36:39.692Z,43.79
2019-03-09T12:37:39.677Z,44.22
2019-03-09T12:38:39.707Z,44.87
2019-03-09T12:39:39.675Z,45.12
2019-03-09T12:40:39.663Z,46.36
2019-03-09T12:41:39.650Z,46.48
2019-03-09T12:42:39.624Z,47.30
2019-03-09T12:43:39.638Z,47.38
2019-03-09T12:44:39.612Z,46.24
2019-03-09T12:45:39.604Z,44.87
2019-03-09T12:46:39.602Z,44.77
2019-03-09T12:47:39.566Z,46.24
2019-03-09T12:48:39.570Z,46.56
2019-03-09T12:49:39.550Z,47.28
2019-03-09T12:50:39.548Z,47.71
2019-03-09T12:51:39.530Z,48.55
2019-03-09T12:52:39.520Z,48.75
2019-03-09T12:53:39.533Z,48.57